Time;durP1;ratioP1;P1;durP2;ratioP2;P2;SDS_P1;SDS_P2;PMS_P1;PMS_P2;Temp;Humidity;BMP_temperature;BMP_pressure;BME280_temperature;BME280_humidity;BME280_pressure;Samples;Min_cycle;Max_cycle;Signal;HPM_P1;HPM_P2
2022/10/14 04:04:20;;;;;;;6.85;4.32;;;;;;;10.59;83.00;101725.97;5064198;28;20394;-81
2022/10/14 04:06:45;;;;;;;7.22;5.53;;;;;;;10.69;82.61;101717.91;5065631;28;20418;-86
2022/10/14 04:09:11;;;;;;;6.72;4.38;;;;;;;10.75;81.95;101709.97;5044759;28;20494;-81
2022/10/14 04:11:36;;;;;;;9.75;4.85;;;;;;;11.02;81.24;101734.94;5046422;28;20068;-81
2022/10/14 04:14:02;;;;;;;10.50;5.78;;;;;;;11.17;81.39;101734.44;5047083;28;20025;-77
2022/10/14 04:16:27;;;;;;;12.15;6.97;;;;;;;11.17;80.48;101721.47;5066058;28;20116;-78
2022/10/14 04:18:53;;;;;;;10.75;6.53;;;;;;;11.34;79.53;101738.19;5066414;28;20032;-90
2022/10/14 04:21:18;;;;;;;10.38;5.85;;;;;;;11.33;79.22;101718.38;5049382;28;20028;-81
2022/10/14 04:23:44;;;;;;;11.82;6.13;;;;;;;11.42;78.81;101725.84;5046275;28;20025;-86
2022/10/14 04:26:09;;;;;;;14.15;6.28;;;;;;;11.55;78.56;101741.78;5067202;28;20032;-81
2022/10/14 04:28:35;;;;;;;10.82;7.05;;;;;;;11.55;78.38;101728.81;5049396;28;20028;-82
2022/10/14 04:31:01;;;;;;;12.88;6.30;;;;;;;11.57;77.89;101727.03;5065418;28;20437;-86
2022/10/14 04:33:26;;;;;;;11.48;7.22;;;;;;;11.63;77.66;101726.81;5065365;28;20037;-83
2022/10/14 04:35:59;;;;;;;13.45;7.05;;;;;;;11.66;77.52;101734.47;5043074;28;20068;-89
2022/10/14 04:38:24;;;;;;;13.38;7.65;;;;;;;11.70;77.47;101731.72;5030659;28;20453;-85
2022/10/14 04:40:50;;;;;;;17.88;7.50;;;;;;;11.65;76.47;101728.44;5049553;28;20029;-95
2022/10/14 04:43:15;;;;;;;18.17;9.00;;;;;;;11.66;77.22;101727.53;5064879;28;20075;-92
2022/10/14 04:45:41;;;;;;;16.52;8.68;;;;;;;11.69;76.41;101727.41;5064706;28;20078;-90
2022/10/14 04:48:06;;;;;;;15.75;8.35;;;;;;;11.56;76.60;101722.75;5046837;28;20078;-87
2022/10/14 04:50:32;;;;;;;14.98;8.13;;;;;;;11.47;77.12;101705.75;5047067;28;20464;-91
2022/10/14 04:52:57;;;;;;;26.25;8.57;;;;;;;11.56;76.99;101718.41;5063285;28;20574;-81
2022/10/14 04:55:23;;;;;;;26.13;7.70;;;;;;;11.55;76.49;101723.63;5045683;28;20094;-93
2022/10/14 04:57:48;;;;;;;16.35;7.72;;;;;;;11.41;76.68;101717.22;5031249;28;20040;-93
2022/10/14 05:00:14;;;;;;;20.90;8.93;;;;;;;11.25;77.44;101699.66;5030948;28;20020;-84
2022/10/14 05:02:40;;;;;;;16.83;8.55;;;;;;;11.38;77.06;101721.63;5063888;28;20071;-88
2022/10/14 05:05:06;;;;;;;22.73;8.23;;;;;;;11.37;77.33;101715.59;5064039;28;20028;-88
2022/10/14 05:07:32;;;;;;;13.52;7.80;;;;;;;11.43;77.07;101724.94;5045471;28;20059;-93
2022/10/14 05:09:57;;;;;;;17.80;8.65;;;;;;;11.31;76.64;101704.63;5062380;28;20036;-91
2022/10/14 05:12:23;;;;;;;18.80;7.95;;;;;;;11.42;77.02;101723.25;5065620;28;20037;-90
2022/10/14 05:14:48;;;;;;;16.33;7.97;;;;;;;11.41;76.65;101717.22;5058218;28;20025;-88
2022/10/14 05:17:14;;;;;;;13.77;7.00;;;;;;;11.41;76.67;101724.13;5039335;28;20051;-95
2022/10/14 05:19:39;;;;;;;13.05;8.05;;;;;;;11.25;76.66;101708.28;5038319;28;20067;-85
2022/10/14 05:22:05;;;;;;;13.90;7.40;;;;;;;11.28;77.02;101704.72;5050967;28;20059;-87
2022/10/14 05:24:30;;;;;;;10.88;7.32;;;;;;;11.38;76.80;101716.44;5034997;28;20036;-87
2022/10/14 05:26:56;;;;;;;14.20;7.72;;;;;;;11.37;76.24;101702.66;5028240;28;20413;-78
2022/10/14 05:29:21;;;;;;;13.45;7.45;;;;;;;11.55;75.82;101732.25;5034753;28;20033;-83
2022/10/14 05:31:47;;;;;;;23.05;10.07;;;;;;;11.39;76.45;101718.13;5018140;28;20053;-84
2022/10/14 05:34:12;;;;;;;16.92;8.75;;;;;;;11.55;76.33;101734.84;5052320;28;20072;-82
2022/10/14 05:36:38;;;;;;;25.55;10.32;;;;;;;11.49;75.76;101706.56;5008087;28;20568;-93
2022/10/14 05:39:06;;;;;;;16.90;8.60;;;;;;;11.59;75.26;101725.22;5014261;28;20026;-85
2022/10/14 05:41:32;;;;;;;19.10;8.95;;;;;;;11.59;75.52;101720.03;5048131;28;20068;-85
2022/10/14 05:43:57;;;;;;;14.95;8.85;;;;;;;11.61;75.07;101719.09;5031192;28;20057;-87
2022/10/14 05:46:23;;;;;;;17.95;10.05;;;;;;;11.83;74.56;101734.75;5031877;28;20552;-89
2022/10/14 05:48:48;;;;;;;16.48;8.85;;;;;;;11.81;74.96;101733.97;5014775;28;20144;-87
2022/10/14 05:51:14;;;;;;;16.58;8.50;;;;;;;11.84;74.78;101735.59;5030766;28;20037;-85
2022/10/14 05:53:40;;;;;;;14.93;8.65;;;;;;;11.91;74.29;101737.06;5036250;28;20057;-84
2022/10/14 05:56:07;;;;;;;21.67;8.18;;;;;;;11.78;73.73;101716.72;5034928;28;20028;-85
2022/10/14 05:58:32;;;;;;;15.48;7.35;;;;;;;11.85;74.10;101732.09;5018189;28;20032;-89
2022/10/14 06:01:00;;;;;;;15.65;7.43;;;;;;;11.89;74.01;101744.03;5037030;28;20029;-89
2022/10/14 06:03:26;;;;;;;14.65;6.53;;;;;;;11.93;74.21;101743.88;5035259;28;20045;-95
2022/10/14 06:05:52;;;;;;;16.67;7.88;;;;;;;12.02;73.91;101745.28;5049093;28;20048;-90
2022/10/14 06:08:17;;;;;;;17.73;8.57;;;;;;;12.04;74.31;101748.66;5034625;28;20482;-96
2022/10/14 06:10:46;;;;;;;18.63;8.85;;;;;;;12.08;73.71;101763.19;5057076;28;20033;-96
2022/10/14 06:13:11;;;;;;;18.08;9.05;;;;;;;12.19;74.00;101763.69;5018620;28;20033;-92
2022/10/14 06:15:37;;;;;;;16.02;8.50;;;;;;;12.00;73.49;101727.19;5034670;28;20025;-87
2022/10/14 06:18:03;;;;;;;23.50;9.20;;;;;;;12.37;73.54;101769.88;5051177;28;20020;-86
2022/10/14 06:20:28;;;;;;;24.42;9.25;;;;;;;12.39;72.91;101749.94;5038277;28;20459;-90
2022/10/14 06:22:54;;;;;;;14.23;8.32;;;;;;;12.31;72.91;101758.00;5048232;28;20500;-95
2022/10/14 06:25:19;;;;;;;20.58;9.20;;;;;;;12.57;72.41;101766.53;5052012;28;20029;-88
2022/10/14 06:27:45;;;;;;;17.25;8.65;;;;;;;12.67;71.54;101760.06;5034900;28;20036;-82
2022/10/14 06:30:11;;;;;;;28.50;8.77;;;;;;;12.75;71.68;101776.19;5032178;28;20517;-85
2022/10/14 06:32:36;;;;;;;15.32;8.32;;;;;;;12.80;71.84;101771.69;5016249;28;20029;-90
2022/10/14 06:35:02;;;;;;;12.38;7.65;;;;;;;13.01;71.17;101771.72;5033789;28;20037;-83
2022/10/14 06:37:27;;;;;;;14.25;7.97;;;;;;;13.02;71.29;101773.41;5033736;28;20032;-90
2022/10/14 06:39:53;;;;;;;15.02;8.82;;;;;;;12.87;71.53;101751.47;5017485;28;20390;-84
2022/10/14 06:42:18;;;;;;;15.93;7.78;;;;;;;12.99;71.51;101750.16;5044224;28;20036;-81
2022/10/14 06:44:44;;;;;;;17.65;8.98;;;;;;;13.14;71.12;101765.09;5021512;28;20037;-86
2022/10/14 06:47:09;;;;;;;14.18;7.22;;;;;;;13.44;69.98;101763.84;5028592;28;20040;-91
2022/10/14 06:49:35;;;;;;;15.05;8.13;;;;;;;13.52;69.80;101775.66;5026229;28;20053;-84
2022/10/14 06:52:00;;;;;;;16.80;7.72;;;;;;;13.56;69.87;101766.81;5024268;28;20076;-85
2022/10/14 06:54:26;;;;;;;14.82;7.25;;;;;;;13.65;69.83;101775.06;5040527;28;20068;-82
2022/10/14 06:56:51;;;;;;;22.80;8.23;;;;;;;13.51;70.01;101758.38;5049528;28;20032;-91
2022/10/14 06:59:17;;;;;;;14.65;8.30;;;;;;;13.60;70.08;101758.00;5030425;28;20052;-83
2022/10/14 07:01:42;;;;;;;15.32;7.10;;;;;;;13.58;69.63;101744.22;5049016;28;20425;-81
2022/10/14 07:04:08;;;;;;;15.82;8.45;;;;;;;13.87;69.37;101772.38;5041591;28;20064;-81
2022/10/14 07:06:35;;;;;;;16.65;8.43;;;;;;;13.86;69.74;101768.06;5049384;28;20028;-91
2022/10/14 07:09:01;;;;;;;15.23;8.38;;;;;;;13.82;69.82;101758.72;5032584;28;20029;-84
2022/10/14 07:11:26;;;;;;;16.10;7.60;;;;;;;13.92;69.92;101760.00;5033105;28;20032;-82
2022/10/14 07:13:52;;;;;;;10.82;6.95;;;;;;;13.93;70.16;101756.47;5014431;28;20090;-81
2022/10/14 07:16:17;;;;;;;12.20;6.35;;;;;;;14.04;70.01;101769.84;5033687;28;20087;-84
2022/10/14 07:18:43;;;;;;;13.90;7.22;;;;;;;14.11;69.83;101780.00;5032323;28;20028;-81
2022/10/14 07:21:08;;;;;;;12.15;7.20;;;;;;;14.02;69.93;101765.63;5049435;28;20845;-81
2022/10/14 07:23:34;;;;;;;12.07;6.78;;;;;;;14.07;70.04;101769.72;5049506;28;20383;-89
2022/10/14 07:26:00;;;;;;;14.98;7.32;;;;;;;14.06;69.99;101765.44;5015609;28;20102;-86
2022/10/14 07:28:25;;;;;;;14.43;7.47;;;;;;;14.01;70.38;101751.78;5015878;28;20029;-86
2022/10/14 07:30:58;;;;;;;15.93;7.28;;;;;;;14.25;69.90;101769.78;5017343;28;20456;-95
2022/10/14 07:33:24;;;;;;;13.50;6.03;;;;;;;14.21;69.25;101761.28;5017201;28;20520;-86
2022/10/14 07:35:49;;;;;;;12.95;7.03;;;;;;;14.35;69.32;101771.91;5032331;28;20025;-89
2022/10/14 07:38:15;;;;;;;15.00;6.50;;;;;;;14.35;68.01;101763.22;5034097;28;20029;-91
2022/10/14 07:40:40;;;;;;;15.65;7.07;;;;;;;14.40;67.82;101750.03;5048775;28;20477;-86
2022/10/14 07:43:06;;;;;;;13.27;6.47;;;;;;;14.56;67.63;101766.66;5031875;28;20082;-82
2022/10/14 07:45:34;;;;;;;12.38;6.38;;;;;;;14.75;67.27;101774.41;5048506;28;20083;-85
2022/10/14 07:48:00;;;;;;;14.43;6.60;;;;;;;14.75;66.97;101769.19;5031350;28;20453;-85
2022/10/14 07:50:26;;;;;;;13.57;6.55;;;;;;;14.73;66.06;101763.22;5034566;28;20108;-86
2022/10/14 07:52:51;;;;;;;13.85;6.50;;;;;;;14.82;65.96;101778.41;5046482;28;20083;-86
2022/10/14 07:55:17;;;;;;;11.35;6.00;;;;;;;14.94;65.85;101785.63;5046580;28;20037;-88
2022/10/14 07:57:43;;;;;;;10.68;6.35;;;;;;;15.01;66.15;101775.75;5048590;28;20152;-94
2022/10/14 08:00:09;;;;;;;11.20;6.28;;;;;;;15.19;65.06;101772.25;5032852;28;20025;-86
2022/10/14 08:02:34;;;;;;;12.80;6.00;;;;;;;15.24;64.55;101761.56;5031956;28;20052;-88
2022/10/14 08:05:00;;;;;;;8.68;5.47;;;;;;;15.18;64.35;101750.53;5031036;28;20116;-87
2022/10/14 08:07:26;;;;;;;12.35;6.05;;;;;;;15.31;64.39;101766.41;5032676;28;20036;-96
2022/10/14 08:09:55;;;;;;;10.50;5.88;;;;;;;15.34;63.63;101752.34;5032770;28;20090;-86
2022/10/14 08:12:21;;;;;;;12.02;6.13;;;;;;;15.43;63.56;101762.31;5048128;28;20032;-84
2022/10/14 08:14:47;;;;;;;9.63;5.18;;;;;;;15.34;63.25;101741.94;5031731;28;20124;-90
2022/10/14 08:17:13;;;;;;;11.32;5.93;;;;;;;15.46;62.72;101754.38;5049711;28;20083;-81
2022/10/14 08:19:38;;;;;;;11.52;5.75;;;;;;;15.30;62.58;101722.16;5032909;28;20033;-82
2022/10/14 08:22:04;;;;;;;14.32;7.25;;;;;;;15.62;62.16;101755.25;5048620;28;20028;-91
2022/10/14 08:24:29;;;;;;;11.82;6.18;;;;;;;15.52;62.51;101737.53;5033120;28;20521;-84
2022/10/14 08:26:56;;;;;;;13.00;8.40;;;;;;;15.85;61.82;101766.28;5032142;28;20044;-85
2022/10/14 08:29:22;;;;;;;15.10;6.57;;;;;;;15.90;60.90;101757.28;5032337;28;20056;-85
2022/10/14 08:31:48;;;;;;;10.25;5.55;;;;;;;16.00;60.60;101749.78;5031386;28;20056;-82
2022/10/14 08:34:14;;;;;;;10.93;5.57;;;;;;;16.09;60.40;101762.34;5049336;28;20033;-89
2022/10/14 08:36:39;;;;;;;10.43;4.90;;;;;;;16.37;60.12;101763.47;5031988;28;20037;-90
2022/10/14 08:39:05;;;;;;;11.60;5.60;;;;;;;16.50;59.46;101761.84;5025927;28;20047;-85
2022/10/14 08:41:46;;;;;;;6.63;4.07;;;;;;;16.61;58.75;101770.75;5028252;28;20029;-83
2022/10/14 08:44:52;;;;;;;12.32;4.38;;;;;;;16.68;57.26;101770.44;5028417;28;20029;-92
2022/10/14 08:47:25;;;;;;;6.78;3.63;;;;;;;16.59;56.60;101737.81;5030639;28;20087;-95
2022/10/14 08:50:03;;;;;;;7.28;3.95;;;;;;;16.87;57.13;101768.50;5005256;28;20062;-95
2022/10/14 08:52:44;;;;;;;9.48;4.85;;;;;;;17.01;56.62;101762.47;5050249;28;20067;-85
2022/10/14 08:55:39;;;;;;;8.57;4.50;;;;;;;17.17;56.29;101776.34;5035246;28;20033;-93
2022/10/14 08:58:10;;;;;;;7.53;4.00;;;;;;;17.19;56.11;101769.25;5029846;28;20045;-82
2022/10/14 09:00:36;;;;;;;8.60;3.70;;;;;;;17.13;55.93;101760.00;5050714;28;20040;-82
2022/10/14 09:03:04;;;;;;;8.55;4.80;;;;;;;17.24;56.15;101756.75;5049295;28;20041;-81
2022/10/14 09:05:29;;;;;;;11.38;5.07;;;;;;;17.25;55.51;101750.59;5032035;28;20032;-81
2022/10/14 09:07:55;;;;;;;10.27;5.15;;;;;;;17.53;64.36;101751.56;5032431;28;20029;-82
2022/10/14 09:10:35;;;;;;;7.40;4.30;;;;;;;17.33;55.56;101719.59;5033206;28;20097;-90
2022/10/14 09:13:17;;;;;;;10.98;5.22;;;;;;;17.72;57.07;101752.16;5034295;28;20036;-82
2022/10/14 09:15:48;;;;;;;8.57;4.75;;;;;;;17.67;53.95;101759.41;5033010;28;20162;-86
2022/10/14 09:18:34;;;;;;;12.80;4.47;;;;;;;17.64;54.31;101755.22;5031587;28;20021;-88
2022/10/14 09:20:59;;;;;;;7.47;4.40;;;;;;;17.65;53.73;101745.59;5050211;28;20486;-93
2022/10/14 09:23:26;;;;;;;8.15;4.30;;;;;;;17.75;52.67;101752.81;5033556;28;20063;-80
2022/10/14 09:25:54;;;;;;;8.65;4.15;;;;;;;17.97;52.49;101756.72;5032980;28;20371;-81
2022/10/14 09:28:22;;;;;;;8.15;3.65;;;;;;;17.94;52.14;101741.22;5050586;28;20039;-82
2022/10/14 09:30:48;;;;;;;8.27;4.07;;;;;;;17.97;51.84;101735.78;5033074;28;20124;-83
2022/10/14 09:33:17;;;;;;;13.65;4.72;;;;;;;18.13;51.94;101738.28;5033742;28;20029;-82
2022/10/14 09:35:43;;;;;;;7.15;4.10;;;;;;;18.38;53.27;101751.50;5051518;28;20024;-84
2022/10/14 09:38:10;;;;;;;7.85;4.18;;;;;;;18.44;51.92;101738.00;5019245;28;20036;-82
2022/10/14 09:40:38;;;;;;;11.55;5.13;;;;;;;18.29;51.73;101733.75;5036132;28;20029;-85
2022/10/14 09:43:09;;;;;;;8.90;4.75;;;;;;;18.37;52.37;101739.31;5050727;28;20433;-87
2022/10/14 09:45:57;;;;;;;9.67;5.03;;;;;;;18.49;51.34;101735.94;5051312;28;20505;-81
2022/10/14 09:48:43;;;;;;;8.63;4.28;;;;;;;18.44;51.92;101735.38;5034578;28;20135;-85
2022/10/14 09:51:21;;;;;;;10.52;4.55;;;;;;;18.54;51.74;101735.63;5052343;28;20025;-92
2022/10/14 09:53:53;;;;;;;8.55;3.85;;;;;;;18.63;51.21;101741.13;5052136;28;20033;-84
2022/10/14 09:56:33;;;;;;;8.38;4.60;;;;;;;18.58;50.34;101732.72;5052591;28;20032;-85
2022/10/14 09:58:59;;;;;;;7.38;4.30;;;;;;;18.66;50.56;101734.03;5050919;28;20040;-88
2022/10/14 10:01:33;;;;;;;11.90;4.55;;;;;;;18.72;50.27;101723.97;5034388;28;20029;-91
2022/10/14 10:04:20;;;;;;;10.00;4.88;;;;;;;18.74;50.59;101727.34;5034731;28;20057;-82
2022/10/14 10:06:51;;;;;;;9.57;5.43;;;;;;;18.80;50.31;101728.72;5050503;28;20021;-93
2022/10/14 10:09:17;;;;;;;10.00;4.70;;;;;;;18.53;50.11;101708.59;5034024;28;20120;-85
2022/10/14 10:11:43;;;;;;;11.00;5.35;;;;;;;18.71;50.69;101713.59;5033154;28;20566;-83
2022/10/14 10:14:26;;;;;;;12.07;5.43;;;;;;;18.79;49.53;101717.41;5051318;28;20032;-91
2022/10/14 10:17:07;;;;;;;11.55;4.88;;;;;;;18.93;49.86;101724.34;5053777;28;20028;-96
2022/10/14 10:19:37;;;;;;;9.98;5.03;;;;;;;18.90;49.84;101724.56;5051549;28;20112;-82
2022/10/14 10:22:18;;;;;;;9.70;5.78;;;;;;;18.98;49.25;101719.66;5034054;28;20033;-81
2022/10/14 10:24:46;;;;;;;8.88;4.95;;;;;;;18.91;49.50;101697.41;5050726;28;20032;-91
2022/10/14 10:27:20;;;;;;;12.77;5.70;;;;;;;18.93;50.00;101695.50;5034774;28;20086;-82
2022/10/14 10:29:45;;;;;;;10.93;5.72;;;;;;;19.12;48.94;101711.69;5034206;28;20025;-83
2022/10/14 10:32:29;;;;;;;10.25;5.32;;;;;;;19.19;49.08;101696.38;5016942;28;20094;-84
2022/10/14 10:35:17;;;;;;;8.18;4.75;;;;;;;19.34;48.47;101702.34;5050828;28;20025;-80
2022/10/14 10:38:12;;;;;;;12.52;5.63;;;;;;;19.36;48.43;101700.44;5051300;28;20029;-84
2022/10/14 10:40:40;;;;;;;11.65;5.18;;;;;;;19.15;48.21;101661.63;5050185;28;20047;-92
2022/10/14 10:43:24;;;;;;;10.50;4.90;;;;;;;19.45;48.09;101691.94;5017311;28;20474;-83
2022/10/14 10:46:04;;;;;;;7.82;4.15;;;;;;;19.69;48.58;101690.28;5050452;28;20383;-84
2022/10/14 10:48:53;;;;;;;12.85;6.75;;;;;;;19.63;47.82;101656.56;5050003;28;20033;-84
2022/10/14 10:51:52;;;;;;;8.63;5.05;;;;;;;19.95;47.79;101684.94;5053422;28;20028;-90
2022/10/14 10:54:30;;;;;;;10.13;4.57;;;;;;;19.84;47.53;101682.25;5046201;28;20097;-84
2022/10/14 10:57:02;;;;;;;13.48;4.82;;;;;;;19.92;46.75;101677.28;5049396;28;20021;-83
2022/10/14 10:59:50;;;;;;;9.82;4.40;;;;;;;19.97;46.79;101686.53;5030928;28;20063;-83
2022/10/14 11:02:18;;;;;;;8.20;4.38;;;;;;;19.89;46.41;101680.16;5048709;28;20080;-83
2022/10/14 11:04:51;;;;;;;12.05;5.25;;;;;;;20.06;48.84;101674.53;5048599;28;20470;-93
2022/10/14 11:13:28;;;;;;;8.25;4.43;;;;;;;20.23;45.75;101647.84;5019150;28;20437;-82
2022/10/14 11:16:13;;;;;;;9.48;4.95;;;;;;;20.18;44.90;101615.84;5032545;28;20029;-82
2022/10/14 11:18:44;;;;;;;6.63;3.92;;;;;;;20.30;44.44;101643.81;5016860;28;20502;-82
2022/10/14 11:21:17;;;;;;;9.95;4.68;;;;;;;20.25;44.76;101640.69;5049353;28;20037;-83
2022/10/14 11:23:53;;;;;;;8.60;4.70;;;;;;;20.26;45.29;101631.88;5048948;28;20025;-87
2022/10/14 11:26:49;;;;;;;9.85;4.32;;;;;;;20.31;44.90;101649.91;5034070;28;20379;-88
2022/10/14 11:29:18;;;;;;;8.48;4.43;;;;;;;20.17;45.36;101629.94;5050858;28;20064;-83
2022/10/14 11:32:04;;;;;;;11.73;4.43;;;;;;;20.21;45.16;101634.00;5050589;28;20104;-85
2022/10/14 11:34:36;;;;;;;11.98;4.88;;;;;;;20.28;45.81;101632.59;5048964;28;20025;-95
2022/10/14 11:37:04;;;;;;;8.93;4.20;;;;;;;20.22;46.23;101630.41;5050575;28;20025;-82
2022/10/14 11:39:38;;;;;;;9.77;4.70;;;;;;;20.13;45.88;101617.09;5048964;28;20152;-86
2022/10/14 11:42:41;;;;;;;8.27;4.32;;;;;;;20.19;46.70;101621.91;5030286;28;20021;-85
2022/10/14 11:45:16;;;;;;;11.43;4.85;;;;;;;20.17;46.30;101614.16;5049895;28;20111;-86
2022/10/14 11:47:42;;;;;;;9.80;4.90;;;;;;;20.02;46.54;101596.88;5050337;28;20493;-85
2022/10/14 11:50:17;;;;;;;20.98;10.10;;;;;;;20.04;47.24;101606.31;5049400;28;20436;-87
2022/10/14 11:52:48;;;;;;;12.18;5.90;;;;;;;19.83;47.03;101570.28;5050147;28;20025;-86
2022/10/14 11:55:18;;;;;;;24.30;9.38;;;;;;;19.93;47.69;101608.06;5032392;28;20506;-82
2022/10/14 11:57:55;;;;;;;8.02;4.55;;;;;;;19.84;48.22;101604.31;5032175;28;20032;-83
2022/10/14 12:00:21;;;;;;;7.97;4.60;;;;;;;19.83;48.03;101588.66;5033691;28;20791;-83
2022/10/14 12:02:55;;;;;;;13.15;6.55;;;;;;;19.95;48.48;101600.91;5031340;28;20056;-82
2022/10/14 12:05:37;;;;;;;12.27;6.60;;;;;;;19.93;48.44;101581.78;5048698;28;20025;-93
2022/10/14 12:08:29;;;;;;;9.50;4.72;;;;;;;19.99;48.45;101579.56;5050892;28;20501;-94
2022/10/14 12:11:05;;;;;;;11.52;5.68;;;;;;;20.07;48.52;101588.69;5049208;28;20115;-83
2022/10/14 12:13:34;;;;;;;6.80;4.15;;;;;;;19.90;48.59;101548.72;5050454;28;20061;-83
2022/10/14 12:16:02;;;;;;;9.38;4.45;;;;;;;19.92;47.80;101573.09;5031922;28;20029;-89
2022/10/14 12:18:28;;;;;;;7.20;3.72;;;;;;;19.95;48.02;101554.47;5031366;28;20108;-85
2022/10/14 12:21:14;;;;;;;7.82;4.28;;;;;;;20.04;47.92;101568.72;5015554;28;20120;-87
2022/10/14 12:23:46;;;;;;;9.25;4.22;;;;;;;19.84;48.24;101558.84;5047134;28;20565;-95
2022/10/14 12:26:23;;;;;;;8.40;3.60;;;;;;;19.81;47.67;101564.31;5036515;28;20052;-78
2022/10/14 12:28:49;;;;;;;7.13;3.85;;;;;;;19.85;48.14;101557.88;5053740;28;20072;-92
2022/10/14 12:31:27;;;;;;;13.45;4.50;;;;;;;19.90;48.71;101561.03;5039620;28;20028;-96
2022/10/14 12:34:13;;;;;;;8.48;3.80;;;;;;;19.84;49.00;101561.47;5055074;28;20029;-89
2022/10/14 12:36:43;;;;;;;8.40;3.75;;;;;;;19.75;48.15;101547.22;5053993;28;20059;-84
2022/10/14 12:39:17;;;;;;;6.22;3.10;;;;;;;19.80;48.26;101552.16;5036445;28;20036;-85
2022/10/14 12:42:11;;;;;;;8.88;3.83;;;;;;;19.71;47.61;101554.47;5053163;28;20111;-83
